createdAt,value
2018-06-27T00:00:36.788Z,14.10
2018-06-27T00:03:05.424Z,14.10
2018-06-27T00:05:34.329Z,14.10
2018-06-27T00:08:03.164Z,14.00
2018-06-27T00:10:31.784Z,14.00
2018-06-27T00:13:00.626Z,14.00
2018-06-27T00:15:29.589Z,14.00
2018-06-27T00:17:58.072Z,14.00
2018-06-27T00:20:26.432Z,14.00
2018-06-27T00:22:54.800Z,14.00
2018-06-27T00:25:23.216Z,14.00
2018-06-27T00:27:51.612Z,14.00
2018-06-27T00:30:20.149Z,14.00
2018-06-27T00:32:48.527Z,14.00
2018-06-27T00:35:59.871Z,14.00
2018-06-27T00:38:28.500Z,14.00
2018-06-27T00:40:56.858Z,13.90
2018-06-27T00:43:25.503Z,14.00
2018-06-27T00:45:54.136Z,13.90
2018-06-27T00:48:22.472Z,13.80
2018-06-27T00:50:51.108Z,13.80
2018-06-27T00:53:19.490Z,13.70
2018-06-27T00:55:48.114Z,13.70
2018-06-27T00:58:16.789Z,13.70
2018-06-27T01:00:45.137Z,13.60
2018-06-27T01:03:13.676Z,13.60
2018-06-27T01:05:42.074Z,13.60
2018-06-27T01:08:10.445Z,13.50
2018-06-27T01:10:39.054Z,13.50
2018-06-27T01:13:07.988Z,13.40
2018-06-27T01:15:36.348Z,13.30
2018-06-27T01:18:04.728Z,13.30
2018-06-27T01:20:33.068Z,13.20
2018-06-27T01:25:30.060Z,13.20
2018-06-27T01:27:58.552Z,13.20
2018-06-27T01:30:27.355Z,13.10
2018-06-27T01:32:55.904Z,13.10
2018-06-27T01:35:25.059Z,13.00
2018-06-27T01:37:53.423Z,13.00
2018-06-27T01:40:22.399Z,12.90
2018-06-27T01:42:50.753Z,12.90
2018-06-27T01:45:19.471Z,12.90
2018-06-27T01:47:48.490Z,12.90
2018-06-27T01:50:17.139Z,12.80
2018-06-27T01:52:45.807Z,12.80
2018-06-27T01:55:14.715Z,12.80
2018-06-27T01:57:43.377Z,12.80
2018-06-27T02:00:11.745Z,12.80
2018-06-27T02:02:40.093Z,12.80
2018-06-27T02:05:08.750Z,12.70
2018-06-27T02:07:37.128Z,12.70
2018-06-27T02:10:05.675Z,12.60
2018-06-27T02:12:34.041Z,12.60
2018-06-27T02:15:02.373Z,12.60
2018-06-27T02:17:30.708Z,12.50
2018-06-27T02:19:59.928Z,12.50
2018-06-27T02:22:28.520Z,12.40
2018-06-27T02:24:56.873Z,12.40
2018-06-27T02:27:25.321Z,12.30
2018-06-27T02:32:22.459Z,12.30
2018-06-27T02:34:50.916Z,12.30
2018-06-27T02:39:47.336Z,12.20
2018-06-27T02:42:16.228Z,12.10
2018-06-27T02:44:45.008Z,12.20
2018-06-27T02:47:13.440Z,12.20
2018-06-27T02:49:42.368Z,12.30
2018-06-27T02:52:10.845Z,12.30
2018-06-27T02:54:39.139Z,12.30
2018-06-27T02:57:07.791Z,12.20
2018-06-27T02:59:36.096Z,12.10
2018-06-27T03:02:04.911Z,12.10
2018-06-27T03:04:33.200Z,12.20
2018-06-27T03:07:02.325Z,12.20
2018-06-27T03:09:31.037Z,12.20
2018-06-27T03:11:59.783Z,12.30
2018-06-27T03:14:28.470Z,12.20
2018-06-27T03:16:57.115Z,12.30
2018-06-27T03:21:53.946Z,12.20
2018-06-27T03:24:22.414Z,12.30
2018-06-27T03:26:50.761Z,12.20
2018-06-27T03:29:19.709Z,12.20
2018-06-27T03:31:48.211Z,12.20
2018-06-27T03:34:16.837Z,12.10
2018-06-27T03:36:45.400Z,12.10
2018-06-27T03:39:13.732Z,12.00
2018-06-27T03:41:42.365Z,12.00
2018-06-27T03:44:10.989Z,12.00
2018-06-27T03:46:39.346Z,11.90
2018-06-27T03:49:07.949Z,11.90
2018-06-27T03:51:36.544Z,11.90
2018-06-27T03:54:04.892Z,12.00
2018-06-27T03:56:33.228Z,12.00
2018-06-27T03:59:01.628Z,12.00
2018-06-27T04:01:30.460Z,12.10
2018-06-27T04:03:59.132Z,12.10
2018-06-27T04:06:27.502Z,12.10
2018-06-27T04:08:55.867Z,12.20
2018-06-27T04:11:24.315Z,12.20
2018-06-27T04:13:53.079Z,12.20
2018-06-27T04:16:21.396Z,12.30
2018-06-27T04:18:49.959Z,12.30
2018-06-27T04:21:18.255Z,12.40
2018-06-27T04:23:46.573Z,12.50
2018-06-27T04:26:15.099Z,12.50
2018-06-27T04:28:43.689Z,12.60
2018-06-27T04:31:12.373Z,12.70
2018-06-27T04:33:40.941Z,12.70
2018-06-27T04:36:09.307Z,12.90
2018-06-27T04:38:38.103Z,12.90
2018-06-27T04:41:06.643Z,13.00
2018-06-27T04:43:34.930Z,13.10
2018-06-27T04:46:03.523Z,13.20
2018-06-27T04:48:32.533Z,13.30
2018-06-27T04:51:01.628Z,13.30
2018-06-27T04:53:29.956Z,13.40
2018-06-27T04:55:58.913Z,13.50
2018-06-27T04:58:27.196Z,13.60
2018-06-27T05:00:55.566Z,13.70
2018-06-27T05:03:24.808Z,13.70
2018-06-27T05:05:53.130Z,13.80
2018-06-27T05:08:21.704Z,13.90
2018-06-27T05:10:50.343Z,14.00
2018-06-27T05:13:19.219Z,14.10
2018-06-27T05:15:47.610Z,14.20
2018-06-27T05:18:16.110Z,14.30
2018-06-27T05:20:44.620Z,14.30
2018-06-27T05:23:13.263Z,14.40
2018-06-27T05:25:41.871Z,14.50
2018-06-27T05:28:10.632Z,14.60
2018-06-27T05:30:39.178Z,14.70
2018-06-27T05:33:07.864Z,14.70
2018-06-27T05:35:36.475Z,14.80
2018-06-27T05:38:05.935Z,14.80
2018-06-27T05:40:34.495Z,14.90
2018-06-27T05:43:02.858Z,14.90
2018-06-27T05:45:31.191Z,14.90
2018-06-27T05:47:59.893Z,15.00
2018-06-27T05:50:28.233Z,15.00
2018-06-27T05:52:56.842Z,15.20
2018-06-27T05:55:25.196Z,15.40
2018-06-27T05:58:36.591Z,15.60
2018-06-27T06:01:05.274Z,15.70
2018-06-27T06:03:34.141Z,15.80
2018-06-27T06:06:02.677Z,15.90
2018-06-27T06:08:31.025Z,16.00
2018-06-27T06:10:59.716Z,16.10
2018-06-27T06:13:28.061Z,16.10
2018-06-27T06:15:56.401Z,16.00
2018-06-27T06:18:24.887Z,16.00
2018-06-27T06:20:53.481Z,16.10
2018-06-27T06:25:50.026Z,16.20
2018-06-27T06:28:18.592Z,16.40
2018-06-27T06:30:46.932Z,16.60
2018-06-27T06:33:15.498Z,16.90
2018-06-27T06:35:43.797Z,17.10
2018-06-27T06:38:12.116Z,17.30
2018-06-27T06:40:40.469Z,17.30
2018-06-27T06:43:08.999Z,17.40
2018-06-27T06:45:37.288Z,17.50
2018-06-27T06:48:06.318Z,17.40
2018-06-27T06:50:34.623Z,17.40
2018-06-27T06:53:02.992Z,17.40
2018-06-27T06:55:31.855Z,17.40
2018-06-27T06:58:00.151Z,17.30
2018-06-27T07:00:29.203Z,17.50
2018-06-27T07:02:57.839Z,17.60
2018-06-27T07:05:26.283Z,17.60
2018-06-27T07:07:54.666Z,17.70
2018-06-27T07:10:23.594Z,17.90
2018-06-27T07:12:52.225Z,17.80
2018-06-27T07:15:21.123Z,17.70
2018-06-27T07:17:50.160Z,17.70
2018-06-27T07:20:18.939Z,17.60
2018-06-27T07:22:47.581Z,17.50
2018-06-27T07:25:15.869Z,17.50
2018-06-27T07:27:44.341Z,17.60
2018-06-27T07:30:13.053Z,18.00
2018-06-27T07:32:42.145Z,18.20
2018-06-27T07:35:11.364Z,18.50
2018-06-27T07:37:39.969Z,18.80
2018-06-27T07:40:08.500Z,19.10
2018-06-27T07:42:37.049Z,19.50
2018-06-27T07:45:05.543Z,19.90
2018-06-27T07:47:34.100Z,20.20
2018-06-27T07:50:02.743Z,20.60
2018-06-27T07:52:31.137Z,20.50
2018-06-27T07:54:59.590Z,20.30
2018-06-27T07:57:28.145Z,20.40
2018-06-27T07:59:56.780Z,21.10
2018-06-27T08:02:25.410Z,21.60
2018-06-27T08:04:53.989Z,21.40
2018-06-27T08:07:22.872Z,21.00
2018-06-27T08:09:51.932Z,20.70
2018-06-27T08:12:20.917Z,20.30
2018-06-27T08:15:27.554Z,20.40
2018-06-27T08:17:55.990Z,20.30
2018-06-27T08:20:24.408Z,20.30
2018-06-27T08:22:52.700Z,20.30
2018-06-27T08:25:21.603Z,20.10
2018-06-27T08:27:50.251Z,20.00
2018-06-27T08:30:18.562Z,19.80
2018-06-27T08:32:47.205Z,19.60
2018-06-27T08:35:15.665Z,19.50
2018-06-27T08:37:43.961Z,19.70
2018-06-27T08:40:12.397Z,20.60
2018-06-27T08:42:40.689Z,22.10
2018-06-27T08:45:08.976Z,23.40
2018-06-27T08:47:37.261Z,24.70
2018-06-27T08:50:05.917Z,25.50
2018-06-27T08:55:02.658Z,23.90
2018-06-27T08:57:31.272Z,23.40
2018-06-27T08:59:59.765Z,23.00
2018-06-27T09:02:28.227Z,22.60
2018-06-27T09:04:57.076Z,21.80
2018-06-27T09:07:25.584Z,21.50
2018-06-27T09:09:54.006Z,21.70
2018-06-27T09:12:23.728Z,22.00
2018-06-27T09:14:52.032Z,22.20
2018-06-27T09:17:20.512Z,23.30
2018-06-27T09:19:49.457Z,24.00
2018-06-27T09:22:18.024Z,24.30
2018-06-27T09:24:46.349Z,24.00
2018-06-27T09:27:15.136Z,23.00
2018-06-27T09:29:44.356Z,22.30
2018-06-27T09:32:13.392Z,21.70
2018-06-27T09:34:41.997Z,21.90
2018-06-27T09:37:10.953Z,22.80
2018-06-27T09:39:39.312Z,24.50
2018-06-27T09:42:08.009Z,25.90
2018-06-27T09:44:36.359Z,25.70
2018-06-27T09:47:05.137Z,26.10
2018-06-27T09:49:33.648Z,26.60
2018-06-27T09:52:02.039Z,25.90
2018-06-27T09:54:30.687Z,26.20
2018-06-27T09:56:59.316Z,26.10
2018-06-27T09:59:27.991Z,25.00
2018-06-27T10:01:56.415Z,23.80
2018-06-27T10:04:25.025Z,22.90
2018-06-27T10:06:53.633Z,22.40
2018-06-27T10:09:22.012Z,22.00
2018-06-27T10:11:50.512Z,21.60
2018-06-27T10:14:19.125Z,21.40
2018-06-27T10:16:47.840Z,21.70
2018-06-27T10:19:16.244Z,22.30
2018-06-27T10:21:44.600Z,22.30
2018-06-27T10:24:13.276Z,22.20
2018-06-27T10:26:41.827Z,22.10
2018-06-27T10:29:10.528Z,22.90
2018-06-27T10:31:39.241Z,23.60
2018-06-27T10:34:07.968Z,24.10
2018-06-27T10:36:36.317Z,25.30
2018-06-27T10:39:07.640Z,26.50
2018-06-27T10:41:36.288Z,27.50
2018-06-27T10:44:05.316Z,28.40
2018-06-27T10:46:33.784Z,28.90
2018-06-27T10:49:02.640Z,29.60
2018-06-27T10:51:31.052Z,29.90
2018-06-27T10:53:59.440Z,30.20
2018-06-27T10:56:28.114Z,30.10
2018-06-27T10:58:56.457Z,28.90
2018-06-27T11:03:53.536Z,28.10
2018-06-27T11:06:22.233Z,29.50
2018-06-27T11:08:50.851Z,30.40
2018-06-27T11:11:19.207Z,31.10
2018-06-27T11:13:47.844Z,31.80
2018-06-27T11:16:16.475Z,32.40
2018-06-27T11:18:45.098Z,30.70
2018-06-27T11:21:13.732Z,30.50
2018-06-27T11:23:42.351Z,31.20
2018-06-27T11:26:10.823Z,31.90
2018-06-27T11:28:39.685Z,31.80
2018-06-27T11:33:37.142Z,32.50
2018-06-27T11:36:05.995Z,33.50
2018-06-27T11:38:34.963Z,34.10
2018-06-27T11:41:03.997Z,33.80
2018-06-27T11:43:32.819Z,33.50
2018-06-27T11:46:42.105Z,33.20
2018-06-27T11:49:10.983Z,33.10
2018-06-27T11:51:39.307Z,32.50
2018-06-27T11:54:08.279Z,32.50
2018-06-27T11:56:37.197Z,33.30
2018-06-27T11:59:05.692Z,33.60
2018-06-27T12:01:34.531Z,34.30
2018-06-27T12:04:03.351Z,34.30
2018-06-27T12:06:32.221Z,33.10
2018-06-27T12:09:00.894Z,31.40
2018-06-27T12:11:29.280Z,29.70
2018-06-27T12:13:58.343Z,28.10
2018-06-27T12:16:27.006Z,26.90
2018-06-27T12:18:55.754Z,25.90
2018-06-27T12:21:24.334Z,24.90
2018-06-27T12:23:52.916Z,23.60
2018-06-27T12:26:21.964Z,22.50
2018-06-27T12:28:50.536Z,22.00
2018-06-27T12:31:18.881Z,21.60
2018-06-27T12:33:47.261Z,21.50
2018-06-27T12:36:16.562Z,21.60
2018-06-27T12:38:45.547Z,21.80
2018-06-27T12:41:14.048Z,22.10
2018-06-27T12:43:42.683Z,22.30
2018-06-27T12:46:11.045Z,22.40
2018-06-27T12:48:39.725Z,22.60
2018-06-27T12:51:08.373Z,22.50
2018-06-27T12:53:36.973Z,22.60
2018-06-27T12:56:05.597Z,22.60
2018-06-27T12:58:33.939Z,22.80
2018-06-27T13:01:02.762Z,23.40
2018-06-27T13:03:31.440Z,24.10
2018-06-27T13:06:00.339Z,24.80
2018-06-27T13:08:28.797Z,25.50
2018-06-27T13:10:57.770Z,26.70
2018-06-27T13:13:26.747Z,28.10
2018-06-27T13:18:24.173Z,30.10
2018-06-27T13:20:52.797Z,30.50
2018-06-27T13:23:21.145Z,30.90
2018-06-27T13:25:49.611Z,31.60
2018-06-27T13:28:18.162Z,31.80
2018-06-27T13:30:46.770Z,32.10
2018-06-27T13:33:15.208Z,32.80
2018-06-27T13:35:43.666Z,32.80
2018-06-27T13:38:12.020Z,33.00
2018-06-27T13:40:40.742Z,31.70
2018-06-27T13:43:09.489Z,31.40
2018-06-27T13:45:37.838Z,29.90
2018-06-27T13:48:06.217Z,28.50
2018-06-27T13:50:34.658Z,28.30
2018-06-27T13:53:02.985Z,27.80
2018-06-27T13:55:31.814Z,28.30
2018-06-27T13:58:00.161Z,29.60
2018-06-27T14:00:28.494Z,31.10
2018-06-27T14:02:57.104Z,32.00
2018-06-27T14:05:25.719Z,31.90
2018-06-27T14:07:54.125Z,31.10
2018-06-27T14:10:22.881Z,30.30
2018-06-27T14:12:51.537Z,28.80
2018-06-27T14:15:20.435Z,27.50
2018-06-27T14:17:49.441Z,26.20
2018-06-27T14:20:17.919Z,25.30
2018-06-27T14:22:46.577Z,25.70
2018-06-27T14:25:15.211Z,27.10
2018-06-27T14:27:43.871Z,28.50
2018-06-27T14:30:12.201Z,29.30
2018-06-27T14:32:40.535Z,30.20
2018-06-27T14:35:09.223Z,30.40
2018-06-27T14:40:06.879Z,29.60
2018-06-27T14:42:35.567Z,27.50
2018-06-27T14:45:04.220Z,26.10
2018-06-27T14:47:32.810Z,24.80
2018-06-27T14:50:01.422Z,23.80
2018-06-27T14:52:30.084Z,23.10
2018-06-27T14:54:58.418Z,22.60
2018-06-27T14:57:27.198Z,22.40
2018-06-27T14:59:56.155Z,22.10
2018-06-27T15:02:25.082Z,21.90
2018-06-27T15:04:53.744Z,22.10
2018-06-27T15:07:22.526Z,23.60
2018-06-27T15:09:51.085Z,25.50
2018-06-27T15:12:19.556Z,27.00
2018-06-27T15:14:47.954Z,27.90
2018-06-27T15:17:16.520Z,28.00
2018-06-27T15:19:48.118Z,27.00
2018-06-27T15:22:16.886Z,25.50
2018-06-27T15:24:45.418Z,24.30
2018-06-27T15:27:13.782Z,24.40
2018-06-27T15:29:42.198Z,25.50
2018-06-27T15:32:10.894Z,26.30
2018-06-27T15:34:39.266Z,26.80
2018-06-27T15:37:08.002Z,27.50
2018-06-27T15:39:36.366Z,28.00
2018-06-27T15:42:05.884Z,28.30
2018-06-27T15:44:34.494Z,28.20
2018-06-27T15:47:03.384Z,28.10
2018-06-27T15:49:31.739Z,27.50
2018-06-27T15:52:00.373Z,27.70
2018-06-27T15:54:29.005Z,27.80
2018-06-27T15:56:57.855Z,28.10
2018-06-27T15:59:26.331Z,28.30
2018-06-27T16:01:55.193Z,28.20
2018-06-27T16:04:23.841Z,27.90
2018-06-27T16:06:52.221Z,26.70
2018-06-27T16:09:20.939Z,26.80
2018-06-27T16:11:49.828Z,27.20
2018-06-27T16:14:18.349Z,27.10
2018-06-27T16:16:47.516Z,27.10
2018-06-27T16:19:16.353Z,27.50
2018-06-27T16:21:44.740Z,27.20
2018-06-27T16:24:13.351Z,26.80
2018-06-27T16:26:42.111Z,25.50
2018-06-27T16:29:10.476Z,24.30
2018-06-27T16:31:39.550Z,23.50
2018-06-27T16:34:07.952Z,22.60
2018-06-27T16:36:36.530Z,22.10
2018-06-27T16:39:08.279Z,21.80
2018-06-27T16:41:36.851Z,21.50
2018-06-27T16:44:05.835Z,21.50
2018-06-27T16:46:34.529Z,21.60
2018-06-27T16:49:02.884Z,21.50
2018-06-27T16:51:32.078Z,21.50
2018-06-27T16:54:00.506Z,21.70
2018-06-27T16:56:29.169Z,21.90
2018-06-27T16:58:57.877Z,21.90
2018-06-27T17:03:54.679Z,21.20
2018-06-27T17:06:23.469Z,20.80
2018-06-27T17:08:51.994Z,20.50
2018-06-27T17:11:20.390Z,20.30
2018-06-27T17:13:49.145Z,20.20
2018-06-27T17:16:17.742Z,20.00
2018-06-27T17:18:46.358Z,19.80
2018-06-27T17:21:15.348Z,19.80
2018-06-27T17:23:44.029Z,19.70
2018-06-27T17:26:13.064Z,19.70
2018-06-27T17:28:41.920Z,19.70
2018-06-27T17:31:11.326Z,19.60
2018-06-27T17:33:39.733Z,19.50
2018-06-27T17:36:09.007Z,19.30
2018-06-27T17:38:37.662Z,19.30
2018-06-27T17:41:06.777Z,19.20
2018-06-27T17:43:36.154Z,19.10
2018-06-27T17:46:04.811Z,19.10
2018-06-27T17:48:33.745Z,19.10
2018-06-27T17:51:02.398Z,19.10
2018-06-27T17:53:30.849Z,19.00
2018-06-27T17:55:59.329Z,19.00
2018-06-27T17:58:28.470Z,19.00
2018-06-27T18:00:57.169Z,19.00
2018-06-27T18:03:25.568Z,18.90
2018-06-27T18:05:54.021Z,18.90
2018-06-27T18:08:22.386Z,19.00
2018-06-27T18:10:50.994Z,18.90
2018-06-27T18:13:19.458Z,18.70
2018-06-27T18:15:47.918Z,18.60
2018-06-27T18:18:16.630Z,18.60
2018-06-27T18:20:45.309Z,18.50
2018-06-27T18:23:13.875Z,18.60
2018-06-27T18:25:42.337Z,18.40
2018-06-27T18:28:10.725Z,18.40
2018-06-27T18:30:39.233Z,18.50
2018-06-27T18:33:07.705Z,18.40
2018-06-27T18:35:36.824Z,18.40
2018-06-27T18:38:05.621Z,18.40
2018-06-27T18:40:34.133Z,18.40
2018-06-27T18:43:02.794Z,18.20
2018-06-27T18:45:31.190Z,18.10
2018-06-27T18:47:59.578Z,18.00
2018-06-27T18:50:28.493Z,17.90
2018-06-27T18:52:57.215Z,17.80
2018-06-27T18:55:26.240Z,17.70
2018-06-27T18:57:55.154Z,17.70
2018-06-27T19:00:23.878Z,17.50
2018-06-27T19:02:52.606Z,17.50
2018-06-27T19:05:21.322Z,17.40
2018-06-27T19:07:49.966Z,17.30
2018-06-27T19:10:19.394Z,17.00
2018-06-27T19:12:48.186Z,17.00
2018-06-27T19:15:16.839Z,17.00
2018-06-27T19:17:45.387Z,17.00
2018-06-27T19:20:14.070Z,16.90
2018-06-27T19:22:42.477Z,16.90
2018-06-27T19:25:10.904Z,16.80
2018-06-27T19:27:40.122Z,16.70
2018-06-27T19:30:08.534Z,16.70
2018-06-27T19:32:36.909Z,16.50
2018-06-27T19:35:06.694Z,16.50
2018-06-27T19:37:35.533Z,16.30
2018-06-27T19:40:04.977Z,16.20
2018-06-27T19:42:33.633Z,16.20
2018-06-27T19:45:02.308Z,16.10
2018-06-27T19:47:31.045Z,16.00
2018-06-27T19:50:00.033Z,15.90
2018-06-27T19:52:28.810Z,15.80
2018-06-27T19:54:57.368Z,15.80
2018-06-27T19:57:26.024Z,15.70
2018-06-27T19:59:54.369Z,15.80
2018-06-27T20:04:51.459Z,15.70
2018-06-27T20:07:20.302Z,15.70
2018-06-27T20:09:49.789Z,15.60
2018-06-27T20:12:18.250Z,15.50
2018-06-27T20:14:46.873Z,15.50
2018-06-27T20:17:15.519Z,15.50
2018-06-27T20:19:44.090Z,15.50
2018-06-27T20:22:12.735Z,15.40
2018-06-27T20:24:41.087Z,15.30
2018-06-27T20:27:09.758Z,15.30
2018-06-27T20:29:38.086Z,15.30
2018-06-27T20:32:06.690Z,15.30
2018-06-27T20:34:35.457Z,15.30
2018-06-27T20:37:04.042Z,15.30
2018-06-27T20:39:32.375Z,15.20
2018-06-27T20:42:01.021Z,15.10
2018-06-27T20:44:29.358Z,15.00
2018-06-27T20:46:58.106Z,14.90
2018-06-27T20:49:26.458Z,14.90
2018-06-27T20:51:54.935Z,14.90
2018-06-27T20:54:23.477Z,14.80
2018-06-27T20:56:52.181Z,14.60
2018-06-27T20:59:20.521Z,14.60
2018-06-27T21:01:48.849Z,14.60
2018-06-27T21:04:17.669Z,14.50
2018-06-27T21:06:45.981Z,14.40
2018-06-27T21:11:43.353Z,14.50
2018-06-27T21:14:11.656Z,14.40
2018-06-27T21:16:40.767Z,14.40
2018-06-27T21:19:09.405Z,14.40
2018-06-27T21:21:38.077Z,14.50
2018-06-27T21:24:06.741Z,14.40
2018-06-27T21:26:35.651Z,14.20
2018-06-27T21:29:03.969Z,14.20
2018-06-27T21:31:32.590Z,14.30
2018-06-27T21:34:01.645Z,14.20
2018-06-27T21:36:30.113Z,14.10
2018-06-27T21:38:58.997Z,14.00
2018-06-27T21:41:27.625Z,14.00
2018-06-27T21:43:56.697Z,14.10
2018-06-27T22:03:39.117Z,13.90
2018-06-27T22:06:08.084Z,13.80
2018-06-27T22:08:36.505Z,13.90
2018-06-27T22:11:04.947Z,13.90
2018-06-27T22:13:33.577Z,13.80
2018-06-27T22:16:02.137Z,13.70
2018-06-27T22:18:30.441Z,13.70
2018-06-27T22:20:58.861Z,13.80
2018-06-27T22:23:27.475Z,13.80
2018-06-27T22:25:56.166Z,13.70
2018-06-27T22:28:24.477Z,13.70
2018-06-27T22:30:53.032Z,13.80
2018-06-27T22:33:21.632Z,13.80
2018-06-27T22:35:50.048Z,13.80
2018-06-27T22:38:18.336Z,13.80
2018-06-27T22:40:47.003Z,13.80
2018-06-27T22:43:15.594Z,13.80
2018-06-27T22:45:43.894Z,13.80
2018-06-27T22:48:12.551Z,13.80
2018-06-27T22:50:40.840Z,13.90
2018-06-27T22:53:09.485Z,13.90
2018-06-27T22:55:38.060Z,13.90
2018-06-27T22:58:06.533Z,13.90
2018-06-27T23:00:35.255Z,13.90
2018-06-27T23:03:04.019Z,13.90
2018-06-27T23:05:32.336Z,14.00
2018-06-27T23:08:00.896Z,14.00
2018-06-27T23:10:29.263Z,14.00
2018-06-27T23:12:57.553Z,14.00
2018-06-27T23:15:25.879Z,13.80
2018-06-27T23:17:54.209Z,13.80
2018-06-27T23:20:22.643Z,13.80
2018-06-27T23:22:51.579Z,13.80
2018-06-27T23:25:20.203Z,13.80
2018-06-27T23:27:48.592Z,13.80
2018-06-27T23:32:45.909Z,13.60
2018-06-27T23:35:14.185Z,13.50
2018-06-27T23:37:42.908Z,13.50
2018-06-27T23:40:11.824Z,13.40
2018-06-27T23:42:40.714Z,13.30
2018-06-27T23:45:09.692Z,13.20
2018-06-27T23:47:37.994Z,13.20
2018-06-27T23:50:06.336Z,13.20
2018-06-27T23:52:35.314Z,13.30
2018-06-27T23:55:03.700Z,13.20
2018-06-27T23:57:32.340Z,13.20
